Time;durP1;ratioP1;P1;durP2;ratioP2;P2;SDS_P1;SDS_P2;PMS_P1;PMS_P2;Temp;Humidity;BMP_temperature;BMP_pressure;BME280_temperature;BME280_humidity;BME280_pressure;Samples;Min_cycle;Max_cycle;Signal;HPM_P1;HPM_P2
2023/10/11 00:03:32;;;;;;;32.42;14.55;;;16.90;99.90;;;;;;5074480;28;20058;-68
2023/10/11 00:05:59;;;;;;;30.38;13.50;;;16.90;99.90;;;;;;5096063;28;20447;-68
2023/10/11 00:08:30;;;;;;;29.50;14.15;;;16.90;99.90;;;;;;5113798;28;20047;-68
2023/10/11 00:10:58;;;;;;;31.75;13.90;;;16.90;99.90;;;;;;5096144;28;20047;-71
2023/10/11 00:13:32;;;;;;;30.85;13.35;;;16.90;99.90;;;;;;5078983;28;20059;-68
2023/10/11 00:15:59;;;;;;;35.28;14.73;;;16.90;99.90;;;;;;5114108;28;20549;-68
2023/10/11 00:18:30;;;;;;;32.00;14.85;;;16.90;99.90;;;;;;5113820;28;20495;-68
2023/10/11 00:20:59;;;;;;;34.65;15.00;;;16.90;99.90;;;;;;5114296;28;20052;-69
2023/10/11 00:23:27;;;;;;;33.90;14.15;;;17.00;99.90;;;;;;5095590;28;20043;-69
2023/10/11 00:26:01;;;;;;;35.28;15.52;;;16.90;99.90;;;;;;5114155;28;20051;-69
2023/10/11 00:28:32;;;;;;;36.10;15.65;;;16.90;99.90;;;;;;5113691;28;20046;-69
2023/10/11 00:31:00;;;;;;;40.50;15.65;;;17.00;99.90;;;;;;5079801;28;20043;-69
2023/10/11 00:33:27;;;;;;;36.63;14.68;;;17.00;99.90;;;;;;5113398;28;20118;-68
2023/10/11 00:35:54;;;;;;;38.97;14.77;;;17.00;99.90;;;;;;5095917;28;20055;-68
2023/10/11 00:38:26;;;;;;;39.25;15.65;;;17.00;99.90;;;;;;5113675;28;20051;-75
2023/10/11 00:43:36;;;;;;;37.45;15.25;;;17.00;99.90;;;;;;5113292;28;20055;-70
2023/10/11 00:46:08;;;;;;;43.58;15.20;;;17.00;99.90;;;;;;5113659;28;20048;-70
2023/10/11 00:51:29;;;;;;;39.08;14.57;;;17.00;99.90;;;;;;5095246;28;20055;-77
2023/10/11 00:53:56;;;;;;;37.40;14.73;;;17.00;99.90;;;;;;5113549;28;20070;-69
2023/10/11 00:56:26;;;;;;;37.05;14.73;;;17.00;99.90;;;;;;5113587;28;20161;-75
2023/10/11 00:58:53;;;;;;;26.40;14.43;;;17.00;99.90;;;;;;5113829;28;20058;-69
2023/10/11 01:01:22;;;;;;;31.52;13.45;;;17.00;99.90;;;;;;5095155;28;20044;-69
2023/10/11 01:03:48;;;;;;;36.50;15.48;;;17.00;99.90;;;;;;5094904;28;20485;-69
2023/10/11 01:06:13;;;;;;;34.85;13.82;;;17.00;99.90;;;;;;5113203;28;20039;-69
2023/10/11 01:08:40;;;;;;;31.52;13.73;;;17.00;99.90;;;;;;5112938;28;20051;-69
2023/10/11 01:11:13;;;;;;;35.58;14.65;;;17.00;99.90;;;;;;5095340;28;20096;-68
2023/10/11 01:13:40;;;;;;;35.25;15.20;;;17.00;99.90;;;;;;5094754;28;20044;-68
2023/10/11 01:16:09;;;;;;;29.02;13.90;;;17.00;99.90;;;;;;5112758;28;20572;-69
2023/10/11 01:18:37;;;;;;;35.72;14.50;;;16.90;99.90;;;;;;5094578;28;20130;-68
2023/10/11 01:21:03;;;;;;;38.33;15.52;;;16.90;99.90;;;;;;5078426;28;20047;-69
2023/10/11 01:23:29;;;;;;;36.25;14.00;;;16.90;99.90;;;;;;5093832;28;20131;-69
2023/10/11 01:25:58;;;;;;;36.65;15.25;;;16.90;99.90;;;;;;5077644;28;20122;-68
2023/10/11 01:28:23;;;;;;;31.77;14.25;;;16.90;99.90;;;;;;5094720;28;20050;-69
2023/10/11 01:30:51;;;;;;;35.63;15.50;;;16.90;99.90;;;;;;5094035;28;20431;-69
2023/10/11 01:33:18;;;;;;;39.05;15.75;;;16.90;99.90;;;;;;5113100;28;20051;-68
2023/10/11 01:35:44;;;;;;;36.78;14.40;;;16.90;99.90;;;;;;5112603;28;20055;-69
2023/10/11 01:38:17;;;;;;;35.45;14.73;;;16.90;99.90;;;;;;5094712;28;20083;-69
2023/10/11 01:40:43;;;;;;;41.22;14.95;;;16.90;99.90;;;;;;5094665;28;20051;-69
2023/10/11 01:43:09;;;;;;;33.85;14.60;;;16.80;99.90;;;;;;5112908;28;20048;-68
2023/10/11 01:45:39;;;;;;;36.72;14.50;;;16.80;99.90;;;;;;5112745;28;20052;-69
2023/10/11 01:48:05;;;;;;;38.08;14.63;;;16.80;99.90;;;;;;5112875;28;20055;-69
2023/10/11 01:50:31;;;;;;;40.80;15.05;;;16.80;99.90;;;;;;5094428;28;20101;-78
2023/10/11 01:52:57;;;;;;;40.95;14.35;;;16.80;99.90;;;;;;5094849;28;20082;-68
2023/10/11 01:55:22;;;;;;;39.40;16.20;;;16.80;99.90;;;;;;5094946;28;20047;-68
2023/10/11 01:57:50;;;;;;;36.83;14.90;;;16.80;99.90;;;;;;5094242;28;20062;-68
2023/10/11 02:00:29;;;;;;;30.23;13.73;;;16.80;99.90;;;;;;5094686;28;20074;-69
2023/10/11 02:02:55;;;;;;;37.38;14.40;;;16.80;99.90;;;;;;5079039;28;20044;-68
2023/10/11 02:05:25;;;;;;;32.88;14.30;;;16.80;99.90;;;;;;5094354;28;20511;-70
2023/10/11 02:07:51;;;;;;;39.75;16.00;;;16.80;99.90;;;;;;5094548;28;20055;-69
2023/10/11 02:10:25;;;;;;;33.05;13.60;;;16.80;99.90;;;;;;5077955;28;20054;-69
2023/10/11 02:12:52;;;;;;;;;;;16.80;99.90;;;;;;5094558;28;20131;-73
2023/10/11 02:15:21;;;;;;;34.35;13.32;;;16.80;99.90;;;;;;5094605;28;20276;-68
2023/10/11 02:17:53;;;;;;;28.58;13.40;;;16.80;99.90;;;;;;5094076;28;20134;-68
2023/10/11 02:20:22;;;;;;;36.60;13.80;;;16.80;99.90;;;;;;5112216;28;20485;-69
2023/10/11 02:22:55;;;;;;;31.92;13.20;;;16.80;99.90;;;;;;5093804;28;20501;-69
2023/10/11 02:25:24;;;;;;;33.37;13.40;;;16.80;99.90;;;;;;5112346;28;20044;-69
2023/10/11 02:27:54;;;;;;;28.20;12.35;;;16.80;99.90;;;;;;5111886;28;20715;-69
2023/10/11 02:30:24;;;;;;;34.15;11.93;;;16.80;99.90;;;;;;5112436;28;20087;-69
2023/10/11 02:32:51;;;;;;;33.70;13.02;;;16.80;99.90;;;;;;5094049;28;20094;-69
2023/10/11 02:35:19;;;;;;;35.42;13.82;;;16.80;99.90;;;;;;5081097;28;20053;-68
2023/10/11 02:37:48;;;;;;;35.80;12.77;;;16.80;99.90;;;;;;5115817;28;20060;-68
2023/10/11 02:40:23;;;;;;;47.58;14.43;;;16.80;99.90;;;;;;5115997;28;20210;-72
2023/10/11 02:42:50;;;;;;;29.25;12.73;;;16.70;99.90;;;;;;5097971;28;20401;-67
2023/10/11 02:45:22;;;;;;;31.83;13.20;;;16.70;99.90;;;;;;5094155;28;20078;-67
2023/10/11 02:47:59;;;;;;;34.05;12.90;;;16.70;99.90;;;;;;5093893;28;20097;-69
2023/10/11 02:50:36;;;;;;;35.30;13.48;;;16.70;99.90;;;;;;5077660;28;20113;-68
2023/10/11 02:53:05;;;;;;;33.50;13.18;;;16.70;99.90;;;;;;5094034;28;20048;-67
2023/10/11 02:55:31;;;;;;;34.83;12.68;;;16.70;99.90;;;;;;5095278;28;20412;-68
2023/10/11 02:58:06;;;;;;;34.33;12.73;;;16.70;99.90;;;;;;5076945;28;20101;-69
2023/10/11 03:00:36;;;;;;;31.73;12.88;;;16.60;99.90;;;;;;5095491;28;20044;-69
2023/10/11 03:03:07;;;;;;;32.08;13.90;;;16.60;99.90;;;;;;5093478;28;20109;-69
2023/10/11 03:05:37;;;;;;;29.65;14.02;;;16.60;99.90;;;;;;5095137;28;20044;-69
2023/10/11 03:08:21;;;;;;;29.30;13.60;;;16.60;99.90;;;;;;5077134;28;20056;-68
2023/10/11 03:10:56;;;;;;;29.60;12.82;;;16.60;99.90;;;;;;5093951;28;20389;-69
2023/10/11 03:13:24;;;;;;;32.92;14.50;;;16.60;99.90;;;;;;5095196;28;20461;-69
2023/10/11 03:15:56;;;;;;;30.35;13.52;;;16.60;99.90;;;;;;5093560;28;20052;-69
2023/10/11 03:18:29;;;;;;;34.33;14.07;;;16.50;99.90;;;;;;5093857;28;20073;-69
2023/10/11 03:21:06;;;;;;;31.50;12.88;;;16.50;99.90;;;;;;5094603;28;20055;-68
2023/10/11 03:23:36;;;;;;;34.58;13.65;;;16.60;99.90;;;;;;5093677;28;20048;-69
2023/10/11 03:26:16;;;;;;;29.88;13.65;;;16.60;99.90;;;;;;5093120;28;20040;-69
2023/10/11 03:28:43;;;;;;;33.85;12.90;;;16.60;99.90;;;;;;5094704;28;20044;-68
2023/10/11 03:31:12;;;;;;;29.23;13.63;;;16.50;99.90;;;;;;5094465;28;20083;-68
2023/10/11 03:33:40;;;;;;;34.00;14.50;;;16.50;99.90;;;;;;5093394;28;20440;-68
2023/10/11 03:36:17;;;;;;;32.15;13.30;;;16.60;99.90;;;;;;5094253;28;20040;-69
2023/10/11 03:38:54;;;;;;;34.42;14.05;;;16.60;99.90;;;;;;5094533;28;20087;-69
2023/10/11 03:44:09;;;;;;;30.55;12.35;;;16.50;99.90;;;;;;5046237;28;20492;-69
2023/10/11 03:46:36;;;;;;;37.97;14.63;;;16.60;99.90;;;;;;5093339;28;20048;-68
2023/10/11 03:51:43;;;;;;;39.70;14.38;;;16.60;99.90;;;;;;5093417;28;20140;-68
2023/10/11 03:54:18;;;;;;;28.60;13.20;;;16.60;99.90;;;;;;5092425;28;20142;-68
2023/10/11 03:56:51;;;;;;;32.50;13.50;;;16.60;99.90;;;;;;5093169;28;20059;-69
2023/10/11 03:59:18;;;;;;;32.80;13.05;;;16.50;99.90;;;;;;5092783;28;20458;-69
2023/10/11 04:01:44;;;;;;;31.05;13.63;;;16.60;99.90;;;;;;5094041;28;20062;-68
2023/10/11 04:04:10;;;;;;;30.85;12.75;;;16.50;99.90;;;;;;5092315;28;20040;-69
2023/10/11 04:06:35;;;;;;;28.65;12.80;;;16.50;99.90;;;;;;5092301;28;20413;-69
2023/10/11 04:09:21;;;;;;;36.22;12.35;;;16.40;99.90;;;;;;5092253;28;20048;-69
2023/10/11 04:11:57;;;;;;;32.88;12.57;;;16.40;99.90;;;;;;5092993;28;20145;-68
2023/10/11 04:14:25;;;;;;;31.25;13.55;;;16.40;99.90;;;;;;5092721;28;20124;-68
2023/10/11 04:17:00;;;;;;;38.65;13.40;;;16.40;99.90;;;;;;5092512;28;20052;-77
2023/10/11 04:19:26;;;;;;;36.10;12.75;;;16.40;99.90;;;;;;5092626;28;20055;-69
2023/10/11 04:24:19;;;;;;;34.90;12.98;;;16.40;99.90;;;;;;5093573;28;20180;-68
2023/10/11 04:26:57;;;;;;;27.80;12.32;;;16.40;99.90;;;;;;5075465;28;20048;-68
2023/10/11 04:29:31;;;;;;;34.72;12.52;;;16.40;99.90;;;;;;5093489;28;20059;-68
2023/10/11 04:34:32;;;;;;;32.97;12.35;;;16.30;99.90;;;;;;5093338;28;20051;-68
2023/10/11 04:37:07;;;;;;;32.60;12.40;;;16.30;99.90;;;;;;5075061;28;20048;-68
2023/10/11 04:39:49;;;;;;;27.05;11.85;;;16.40;99.90;;;;;;5075416;28;20458;-69
2023/10/11 04:42:19;;;;;;;37.17;12.75;;;16.30;99.90;;;;;;5093005;28;20048;-69
2023/10/11 04:44:54;;;;;;;30.73;12.10;;;16.30;99.90;;;;;;5101454;28;20082;-69
2023/10/11 04:47:21;;;;;;;27.00;11.80;;;16.30;99.90;;;;;;5095113;28;20117;-69
2023/10/11 04:49:48;;;;;;;28.23;11.18;;;16.40;99.90;;;;;;5095542;28;20100;-69
2023/10/11 04:52:22;;;;;;;32.13;10.85;;;16.40;99.90;;;;;;5095056;28;20480;-68
2023/10/11 04:54:54;;;;;;;;;;;16.30;99.90;;;;;;5096908;28;20493;-68
2023/10/11 04:57:48;;;;;;;37.17;12.25;;;16.40;99.90;;;;;;5113270;28;19927;-69
2023/10/11 05:00:18;;;;;;;28.88;11.60;;;16.30;99.90;;;;;;5094812;28;20066;-68
2023/10/11 05:02:50;;;;;;;31.33;11.68;;;16.30;99.90;;;;;;5078972;28;20047;-68
2023/10/11 05:05:19;;;;;;;34.38;11.43;;;16.40;99.90;;;;;;5094811;28;20291;-69
2023/10/11 05:07:55;;;;;;;28.35;11.85;;;16.30;99.90;;;;;;5112833;28;20400;-68
2023/10/11 05:12:58;;;;;;;31.52;11.50;;;16.40;99.90;;;;;;5112647;28;20048;-68
2023/10/11 05:15:29;;;;;;;29.98;11.55;;;16.30;99.90;;;;;;5079710;28;20085;-69
2023/10/11 05:18:06;;;;;;;26.77;11.45;;;16.40;99.90;;;;;;5112657;28;20504;-69
2023/10/11 05:20:57;;;;;;;31.35;11.30;;;16.40;99.90;;;;;;5094418;28;20507;-68
2023/10/11 05:23:18;;;;;;;30.92;11.25;;;16.30;99.90;;;;;;5093559;28;20485;-69
2023/10/11 05:25:59;;;;;;;26.27;11.60;;;16.40;99.90;;;;;;5094722;28;20047;-69
2023/10/11 05:28:27;;;;;;;33.33;12.20;;;16.40;99.90;;;;;;5094712;28;20039;-69
2023/10/11 05:33:57;;;;;;;26.88;11.75;;;16.40;99.90;;;;;;5094713;28;20047;-68
2023/10/11 05:52:51;;;;;;;29.77;13.18;;;16.50;99.90;;;;;;5094635;28;20362;-69
2023/10/11 05:55:17;;;;;;;37.67;12.88;;;16.50;99.90;;;;;;5094048;28;20048;-69
2023/10/11 05:57:44;;;;;;;26.60;12.45;;;16.50;99.90;;;;;;5112434;28;20126;-69
2023/10/11 06:00:23;;;;;;;30.38;12.23;;;16.50;99.90;;;;;;5112122;28;20055;-69
2023/10/11 06:02:51;;;;;;;32.65;12.63;;;16.60;99.90;;;;;;5096340;28;20123;-70
2023/10/11 06:05:22;;;;;;;39.53;12.52;;;16.60;99.90;;;;;;5093904;28;20039;-69
2023/10/11 06:08:00;;;;;;;38.85;12.40;;;16.60;99.90;;;;;;5077510;28;20116;-73
2023/10/11 06:10:41;;;;;;;29.58;12.15;;;16.60;99.90;;;;;;5097981;28;20050;-68
2023/10/11 06:13:13;;;;;;;32.53;12.15;;;16.60;99.90;;;;;;5116183;28;20519;-77
2023/10/11 06:15:43;;;;;;;29.13;11.63;;;16.70;99.90;;;;;;5116544;28;20035;-68
2023/10/11 06:18:35;;;;;;;27.45;11.88;;;16.70;99.90;;;;;;5115750;28;20044;-70
2023/10/11 06:21:01;;;;;;;28.35;12.05;;;16.70;99.90;;;;;;5083660;28;20055;-69
2023/10/11 06:23:27;;;;;;;29.27;11.80;;;16.70;99.90;;;;;;5065072;28;20219;-69
2023/10/11 06:25:53;;;;;;;25.88;10.77;;;16.70;99.90;;;;;;5115869;28;20472;-69
2023/10/11 06:28:30;;;;;;;35.20;11.63;;;16.70;99.90;;;;;;5115720;28;20066;-69
2023/10/11 06:31:00;;;;;;;34.30;11.57;;;16.70;99.90;;;;;;5098108;28;20496;-70
2023/10/11 06:33:27;;;;;;;33.70;11.85;;;16.70;99.90;;;;;;5115688;28;20108;-69
2023/10/11 06:35:53;;;;;;;29.08;12.25;;;16.70;99.90;;;;;;5097670;28;20503;-68
2023/10/11 06:38:21;;;;;;;34.97;11.82;;;16.80;99.90;;;;;;5097398;28;20046;-68
2023/10/11 06:40:54;;;;;;;37.97;12.82;;;16.70;99.90;;;;;;5115813;28;20052;-68
2023/10/11 06:43:20;;;;;;;31.38;12.40;;;16.70;99.90;;;;;;5115595;28;20043;-68
2023/10/11 06:45:49;;;;;;;35.85;11.65;;;16.70;99.90;;;;;;5115741;28;20087;-69
2023/10/11 06:48:15;;;;;;;35.00;12.98;;;16.70;99.90;;;;;;5097498;28;20105;-69
2023/10/11 06:50:41;;;;;;;34.38;11.55;;;16.60;99.90;;;;;;5115771;28;20127;-69
2023/10/11 06:53:09;;;;;;;29.92;9.82;;;16.70;99.90;;;;;;5097115;28;20544;-69
2023/10/11 06:55:39;;;;;;;28.08;11.50;;;16.70;99.90;;;;;;5097461;28;20124;-69
2023/10/11 06:58:16;;;;;;;27.48;11.60;;;16.70;99.90;;;;;;5115733;28;20054;-68
2023/10/11 07:00:48;;;;;;;29.02;11.65;;;16.70;99.90;;;;;;5115694;28;20053;-68
2023/10/11 07:06:00;;;;;;;25.05;10.38;;;16.80;99.90;;;;;;5097495;28;20048;-68
2023/10/11 07:08:31;;;;;;;22.88;10.80;;;16.80;99.90;;;;;;5097322;28;20156;-68
2023/10/11 07:11:16;;;;;;;20.08;9.55;;;16.80;99.90;;;;;;5115487;28;20043;-68
2023/10/11 07:14:00;;;;;;;;;;;16.90;99.90;;;;;;5097867;28;20040;-68
2023/10/11 07:16:28;;;;;;;28.63;10.73;;;16.80;99.90;;;;;;5097336;28;20246;-68
2023/10/11 07:18:56;;;;;;;27.10;10.50;;;16.90;99.90;;;;;;5115647;28;20321;-68
2023/10/11 07:21:26;;;;;;;24.95;10.20;;;16.90;99.90;;;;;;5113323;28;20438;-68
2023/10/11 07:26:48;;;;;;;28.15;9.93;;;17.10;99.90;;;;;;5114445;28;20130;-73
2023/10/11 07:29:16;;;;;;;24.67;10.10;;;17.10;99.90;;;;;;5114813;28;20439;-69
2023/10/11 07:31:51;;;;;;;22.15;9.73;;;17.10;99.90;;;;;;5114780;28;20047;-69
2023/10/11 07:34:18;;;;;;;21.92;10.30;;;17.10;99.90;;;;;;5096748;28;20050;-76
2023/10/11 07:36:45;;;;;;;21.60;10.15;;;17.10;99.90;;;;;;5096403;28;20130;-72
2023/10/11 07:42:01;;;;;;;28.08;10.07;;;17.20;99.90;;;;;;5097102;28;20127;-74
2023/10/11 07:44:31;;;;;;;28.50;10.00;;;17.20;99.90;;;;;;5092963;28;20055;-69
2023/10/11 07:46:57;;;;;;;21.33;9.85;;;17.30;99.90;;;;;;5092985;28;20094;-68
2023/10/11 07:49:24;;;;;;;28.20;10.85;;;17.30;99.90;;;;;;5093212;28;20051;-68
2023/10/11 07:51:53;;;;;;;27.70;10.43;;;17.30;99.90;;;;;;5094342;28;20402;-74
2023/10/11 07:54:20;;;;;;;28.60;10.20;;;17.40;99.90;;;;;;5094178;28;20494;-76
2023/10/11 07:56:47;;;;;;;21.83;9.32;;;17.40;99.90;;;;;;5092492;28;20130;-69
2023/10/11 07:59:13;;;;;;;23.50;10.20;;;17.50;99.90;;;;;;5093389;28;20044;-69
2023/10/11 08:01:45;;;;;;;26.67;9.75;;;17.50;99.90;;;;;;5091974;28;20223;-70
2023/10/11 08:04:29;;;;;;;25.45;10.15;;;17.50;99.90;;;;;;5093259;28;20048;-72
2023/10/11 08:06:59;;;;;;;22.08;9.90;;;17.50;99.90;;;;;;5093451;28;20381;-70
2023/10/11 08:09:45;;;;;;;26.00;10.02;;;17.50;99.90;;;;;;5091872;28;20401;-69
2023/10/11 08:12:15;;;;;;;24.05;9.73;;;17.50;99.90;;;;;;5092254;28;20119;-72
2023/10/11 08:14:45;;;;;;;24.25;11.20;;;17.50;99.90;;;;;;5092936;28;20076;-71
2023/10/11 08:17:20;;;;;;;25.92;11.10;;;17.50;99.90;;;;;;5093329;28;20101;-75
2023/10/11 08:19:48;;;;;;;27.25;10.70;;;17.50;99.90;;;;;;5074961;28;20051;-69
2023/10/11 08:22:15;;;;;;;23.05;11.25;;;17.50;99.90;;;;;;5092534;28;20052;-70
2023/10/11 08:24:46;;;;;;;28.73;11.02;;;17.50;99.90;;;;;;5074909;28;20361;-68
2023/10/11 08:30:05;;;;;;;31.60;10.82;;;17.50;99.90;;;;;;5093351;28;20067;-69
2023/10/11 08:32:32;;;;;;;22.10;10.35;;;17.50;99.90;;;;;;5091696;28;20131;-69
2023/10/11 08:34:57;;;;;;;21.38;9.93;;;17.50;99.90;;;;;;5075275;28;20123;-69
2023/10/11 08:37:23;;;;;;;24.05;9.80;;;17.50;99.90;;;;;;5092959;28;20098;-78
2023/10/11 08:39:50;;;;;;;21.73;10.70;;;17.50;99.90;;;;;;5091974;28;20198;-68
2023/10/11 08:42:16;;;;;;;19.67;9.23;;;17.50;99.90;;;;;;5093387;28;20048;-68
2023/10/11 08:44:46;;;;;;;32.50;10.27;;;17.50;99.90;;;;;;5098394;28;20055;-68
2023/10/11 08:47:19;;;;;;;25.02;9.85;;;17.60;99.90;;;;;;5113327;28;20408;-70
2023/10/11 08:49:48;;;;;;;26.75;9.82;;;17.60;99.90;;;;;;5095188;28;20050;-69
2023/10/11 08:52:21;;;;;;;23.70;9.63;;;17.60;99.90;;;;;;5113328;28;20124;-70
2023/10/11 08:54:49;;;;;;;21.35;9.25;;;17.60;99.90;;;;;;5113150;28;20118;-70
2023/10/11 08:57:15;;;;;;;22.60;9.00;;;17.50;99.90;;;;;;5095280;28;20401;-70
2023/10/11 08:59:48;;;;;;;28.20;10.15;;;17.50;99.90;;;;;;5095054;28;20055;-70
2023/10/11 09:02:17;;;;;;;18.20;9.03;;;17.50;99.90;;;;;;5113152;28;20069;-70
2023/10/11 09:05:02;;;;;;;23.00;9.13;;;17.50;99.90;;;;;;5094765;28;20285;-68
2023/10/11 09:07:44;;;;;;;18.70;7.32;;;17.50;99.90;;;;;;5113225;28;20089;-77
2023/10/11 09:10:28;;;;;;;14.60;7.38;;;17.40;99.90;;;;;;5095484;28;20044;-69
2023/10/11 09:12:59;;;;;;;17.23;6.53;;;17.50;99.90;;;;;;5095305;28;20054;-69
2023/10/11 09:15:42;;;;;;;13.88;6.60;;;17.50;99.90;;;;;;5095074;28;20530;-69
2023/10/11 09:18:15;;;;;;;11.88;6.40;;;17.50;99.90;;;;;;5095298;28;20397;-69
2023/10/11 09:20:49;;;;;;;15.80;6.88;;;17.50;99.90;;;;;;5095135;28;20050;-70
2023/10/11 09:23:21;;;;;;;11.15;5.95;;;17.50;99.90;;;;;;5095081;28;20117;-69
2023/10/11 09:25:59;;;;;;;10.30;6.28;;;17.60;99.90;;;;;;5113157;28;20127;-71
2023/10/11 09:28:26;;;;;;;11.30;6.05;;;17.60;99.90;;;;;;5095088;28;20054;-70
2023/10/11 09:31:11;;;;;;;12.00;5.53;;;17.70;99.90;;;;;;5112585;28;20046;-73
2023/10/11 09:33:47;;;;;;;12.25;6.47;;;17.70;99.90;;;;;;5095013;28;20051;-71
2023/10/11 09:36:14;;;;;;;14.70;6.28;;;17.70;99.90;;;;;;5095443;28;20127;-70
2023/10/11 09:38:41;;;;;;;11.70;6.22;;;17.80;99.90;;;;;;5077801;28;20044;-70
2023/10/11 09:41:07;;;;;;;15.55;5.97;;;17.80;99.90;;;;;;5094607;28;20489;-70
2023/10/11 09:43:45;;;;;;;11.90;6.45;;;17.90;99.90;;;;;;5076943;28;20529;-82
2023/10/11 09:46:12;;;;;;;15.13;6.57;;;17.90;99.90;;;;;;5094296;28;20051;-72
2023/10/11 09:48:42;;;;;;;13.68;6.93;;;18.00;99.90;;;;;;5094463;28;20050;-70
2023/10/11 09:51:14;;;;;;;12.57;6.03;;;17.90;99.90;;;;;;5094908;28;20044;-70
2023/10/11 09:53:49;;;;;;;15.32;7.22;;;18.00;99.90;;;;;;5094287;28;20396;-69
2023/10/11 09:56:30;;;;;;;11.13;6.68;;;18.00;99.90;;;;;;5112570;28;20390;-69
2023/10/11 09:59:24;;;;;;;12.63;6.40;;;18.00;99.90;;;;;;5094267;28;20039;-69
2023/10/11 10:02:12;;;;;;;17.20;6.97;;;18.00;99.90;;;;;;5112358;28;20047;-69
2023/10/11 10:04:50;;;;;;;17.90;6.32;;;18.00;99.90;;;;;;5112300;28;20077;-73
2023/10/11 10:07:21;;;;;;;12.80;6.88;;;18.00;99.90;;;;;;5094186;28;20047;-72
2023/10/11 10:10:02;;;;;;;19.95;7.00;;;18.00;99.90;;;;;;5112265;28;20126;-68
2023/10/11 10:12:33;;;;;;;12.23;6.65;;;18.10;99.90;;;;;;5094783;28;20104;-68
2023/10/11 10:15:14;;;;;;;15.00;6.68;;;18.10;99.90;;;;;;5093768;28;20040;-70
2023/10/11 10:18:05;;;;;;;13.68;6.43;;;18.20;99.90;;;;;;5093849;28;20041;-72
2023/10/11 10:20:44;;;;;;;13.82;6.55;;;18.30;99.90;;;;;;5098495;28;20162;-70
2023/10/11 10:23:16;;;;;;;14.35;6.82;;;18.30;99.90;;;;;;5094627;28;20048;-69
2023/10/11 10:25:48;;;;;;;14.77;6.38;;;18.30;99.90;;;;;;5112603;28;20039;-70
2023/10/11 10:28:34;;;;;;;15.45;6.25;;;18.30;99.90;;;;;;5094735;28;20052;-70
2023/10/11 10:31:09;;;;;;;13.20;6.18;;;18.40;99.90;;;;;;5093766;28;20702;-68
2023/10/11 10:33:36;;;;;;;11.40;6.53;;;18.40;99.90;;;;;;5094425;28;20374;-70
2023/10/11 10:36:28;;;;;;;17.15;6.68;;;18.40;99.90;;;;;;5094281;28;20047;-69
2023/10/11 10:39:00;;;;;;;13.23;6.20;;;18.50;99.90;;;;;;5112267;28;20112;-70
2023/10/11 10:41:32;;;;;;;11.95;6.43;;;18.50;99.90;;;;;;5112417;28;20047;-69
2023/10/11 10:44:12;;;;;;;14.95;6.05;;;18.60;99.90;;;;;;5112355;28;20126;-68
2023/10/11 10:46:53;;;;;;;11.13;5.65;;;18.70;99.90;;;;;;5077360;28;20374;-69
2023/10/11 10:49:40;;;;;;;14.27;6.28;;;18.90;99.90;;;;;;5112450;28;20047;-69
2023/10/11 10:52:29;;;;;;;10.13;5.20;;;19.00;99.90;;;;;;5111950;28;20056;-70
2023/10/11 10:54:56;;;;;;;10.50;5.95;;;19.10;99.90;;;;;;5113411;28;20073;-69
2023/10/11 10:57:24;;;;;;;10.88;5.50;;;19.10;99.90;;;;;;5115852;28;20567;-68
2023/10/11 10:59:50;;;;;;;15.02;5.43;;;19.20;99.90;;;;;;5115274;28;20040;-69
2023/10/11 11:02:19;;;;;;;13.10;5.35;;;19.20;99.90;;;;;;5080998;28;20048;-73
2023/10/11 11:04:45;;;;;;;7.72;4.68;;;19.20;99.90;;;;;;5097263;28;20048;-79
2023/10/11 11:07:22;;;;;;;11.00;4.82;;;19.20;99.90;;;;;;5064119;28;20131;-70
2023/10/11 11:09:54;;;;;;;10.70;5.00;;;19.20;99.90;;;;;;5115492;28;20043;-71
2023/10/11 11:12:28;;;;;;;9.90;4.70;;;19.20;99.90;;;;;;5115986;28;20446;-70
2023/10/11 11:14:56;;;;;;;11.27;4.93;;;19.30;99.90;;;;;;5097287;28;20120;-72
2023/10/11 11:17:46;;;;;;;10.18;4.32;;;19.30;99.90;;;;;;5116180;28;20046;-71
2023/10/11 11:20:15;;;;;;;9.98;4.70;;;19.30;99.90;;;;;;5115662;28;20043;-70
2023/10/11 11:22:45;;;;;;;14.93;5.32;;;19.30;99.90;;;;;;5115422;28;20035;-69
2023/10/11 11:25:34;;;;;;;10.85;4.55;;;19.30;99.90;;;;;;5097462;28;20051;-69
2023/10/11 11:28:14;;;;;;;9.18;4.43;;;19.20;99.90;;;;;;5115265;28;20047;-69
2023/10/11 11:30:43;;;;;;;9.77;4.13;;;19.20;99.90;;;;;;5097431;28;20149;-70
2023/10/11 11:33:35;;;;;;;12.07;4.80;;;19.20;99.90;;;;;;5097523;28;20062;-71
2023/10/11 11:36:22;;;;;;;13.07;4.55;;;19.20;99.90;;;;;;5096890;28;20047;-69
2023/10/11 11:38:48;;;;;;;9.55;4.18;;;19.20;99.90;;;;;;5115448;28;20381;-75
2023/10/11 11:41:17;;;;;;;10.63;4.15;;;19.20;99.90;;;;;;5097109;28;20054;-69
2023/10/11 11:43:46;;;;;;;12.77;4.47;;;19.20;99.90;;;;;;5080768;28;20051;-69
2023/10/11 11:46:15;;;;;;;9.40;3.60;;;19.20;99.90;;;;;;5114171;28;20054;-69
2023/10/11 11:48:41;;;;;;;11.50;3.83;;;19.20;99.90;;;;;;5096838;28;20085;-69
2023/10/11 11:51:13;;;;;;;9.40;3.65;;;19.20;99.90;;;;;;5114575;28;20075;-70
2023/10/11 11:53:45;;;;;;;12.82;4.15;;;19.30;99.90;;;;;;5114721;28;20086;-68
2023/10/11 11:56:12;;;;;;;7.05;3.90;;;19.40;99.90;;;;;;5114500;28;20561;-69
2023/10/11 11:58:45;;;;;;;11.88;3.90;;;19.40;99.90;;;;;;5114776;28;20079;-69
2023/10/11 12:01:19;;;;;;;8.90;4.05;;;19.40;99.90;;;;;;5114539;28;20123;-69
2023/10/11 12:03:54;;;;;;;7.90;4.03;;;19.40;99.90;;;;;;5114765;28;20099;-70
2023/10/11 12:06:22;;;;;;;10.20;4.00;;;19.40;99.90;;;;;;5096111;28;20050;-69
2023/10/11 12:08:58;;;;;;;12.65;3.92;;;19.40;99.90;;;;;;5114588;28;20043;-69
2023/10/11 12:11:31;;;;;;;8.52;3.55;;;19.40;99.90;;;;;;5114693;28;20382;-69
2023/10/11 12:13:58;;;;;;;12.68;3.50;;;19.40;99.90;;;;;;5096158;28;20043;-70
2023/10/11 12:16:24;;;;;;;7.97;3.42;;;19.40;99.90;;;;;;5114187;28;20079;-69
2023/10/11 12:19:01;;;;;;;11.35;4.18;;;19.40;99.90;;;;;;5114396;28;20148;-69
2023/10/11 12:21:27;;;;;;;8.55;3.67;;;19.50;99.90;;;;;;5096407;28;20095;-69
2023/10/11 12:23:53;;;;;;;8.38;4.00;;;19.50;99.90;;;;;;5095849;28;20052;-73
2023/10/11 12:26:20;;;;;;;10.20;3.65;;;19.60;99.90;;;;;;5113627;28;20088;-70
2023/10/11 12:28:49;;;;;;;10.73;3.95;;;19.60;99.90;;;;;;5113877;28;20035;-69
2023/10/11 12:31:18;;;;;;;9.23;3.80;;;19.60;99.90;;;;;;5113652;28;20036;-69
2023/10/11 12:33:44;;;;;;;9.98;3.97;;;19.60;99.90;;;;;;5113947;28;20048;-69
2023/10/11 12:36:11;;;;;;;9.52;3.85;;;19.60;99.90;;;;;;5113493;28;20485;-69
2023/10/11 12:38:38;;;;;;;11.10;3.83;;;19.50;99.90;;;;;;5114357;28;20058;-69
2023/10/11 12:41:04;;;;;;;10.10;3.78;;;19.50;99.90;;;;;;5113736;28;20118;-70
2023/10/11 12:43:32;;;;;;;11.05;3.97;;;19.50;99.90;;;;;;5095902;28;20127;-69
2023/10/11 12:45:59;;;;;;;12.07;4.30;;;19.50;99.90;;;;;;5095294;28;20141;-81
2023/10/11 12:48:24;;;;;;;10.90;3.85;;;19.50;99.90;;;;;;5113689;28;20047;-68
2023/10/11 12:50:51;;;;;;;11.20;3.58;;;19.50;99.90;;;;;;5095775;28;20366;-70
2023/10/11 12:53:16;;;;;;;12.85;4.07;;;19.50;99.90;;;;;;5095703;28;20047;-69
2023/10/11 12:55:49;;;;;;;8.65;3.72;;;19.40;99.90;;;;;;5113569;28;20031;-70
2023/10/11 12:58:16;;;;;;;10.70;3.45;;;19.40;99.90;;;;;;5095858;28;20065;-70
2023/10/11 13:00:51;;;;;;;9.07;3.70;;;19.40;99.90;;;;;;5113371;28;20043;-69
2023/10/11 13:03:26;;;;;;;8.27;3.10;;;19.40;99.90;;;;;;5095809;28;20054;-67
2023/10/11 13:05:52;;;;;;;10.80;3.33;;;19.40;99.90;;;;;;5113597;28;20031;-69
2023/10/11 13:08:24;;;;;;;8.40;3.40;;;19.40;99.90;;;;;;5113152;28;20055;-69
2023/10/11 13:10:51;;;;;;;9.23;3.45;;;19.40;99.90;;;;;;5095311;28;20051;-69
2023/10/11 13:13:17;;;;;;;8.75;3.22;;;19.40;99.90;;;;;;5095031;28;20047;-69
2023/10/11 13:15:58;;;;;;;7.88;3.10;;;19.50;99.90;;;;;;5095459;28;20052;-69
2023/10/11 13:18:26;;;;;;;11.43;3.20;;;19.50;99.90;;;;;;5094164;28;20039;-69
2023/10/11 13:20:55;;;;;;;9.90;3.45;;;19.50;99.90;;;;;;5095224;28;20048;-69
2023/10/11 13:23:28;;;;;;;10.52;4.55;;;19.50;99.90;;;;;;5094788;28;20055;-69
2023/10/11 13:26:08;;;;;;;12.23;4.00;;;19.40;99.90;;;;;;5113844;28;20043;-69
2023/10/11 13:28:35;;;;;;;12.68;4.32;;;19.40;99.90;;;;;;5095090;28;20039;-69
2023/10/11 13:31:04;;;;;;;9.68;4.10;;;19.30;99.90;;;;;;5112988;28;20050;-69
2023/10/11 13:33:31;;;;;;;10.00;4.18;;;19.00;99.90;;;;;;5094684;28;20599;-69
2023/10/11 13:35:58;;;;;;;11.48;4.13;;;19.30;99.90;;;;;;5078215;28;20052;-69
2023/10/11 13:38:24;;;;;;;10.25;3.83;;;19.20;99.90;;;;;;5094448;28;20044;-68
2023/10/11 13:40:50;;;;;;;13.10;4.20;;;19.20;99.90;;;;;;5112983;28;20058;-69
2023/10/11 13:43:18;;;;;;;10.13;3.85;;;19.20;99.90;;;;;;5077820;28;20130;-69
2023/10/11 13:45:56;;;;;;;7.82;3.47;;;19.20;99.90;;;;;;5112515;28;20063;-69